Strona główna
METAR-TAF:

METAR-TAF

Lotnisko :

Port lotniczy Sanya-Phoenix

Sanya, Chiny

Szerokość geograficzna: 18-18N, Długość geograficzna: 109-24E, wysokość: 27 m

Aktualna obserwacja pogody

Raport powstał 19 minut temu, godzina 01:00 UTC
Wiatr 8 kt od wschód, zmienny między północny wschód i wschodnio-południowy wschód
Temperatura 29°C
Wilgotność 62%
Ciśnienie 1015 hPa
Widzialność 10 km lub więcej
Mało chmury na wysokości 2000 ft
Przerywane chmury na wysokości 3300 ft

METAR: ZJSY 130100Z 08004MPS 040V110 9999 FEW020 BKN033 29/21 Q1015 NOSIG

czas: 09:19 (01:19 UTC)

Prognoza

Raport powstał 4 godziny i 14 minut temu, godzina 21:05 UTC
Prognoza ważna od 13 godzina 00 UTC do 13 godzina 24 UTC
Wiatr 8 kt od południowo-południowy wschód
Widzialność 10 km lub więcej
Mało chmury na wysokości 2000 ft

TAF: ZJSY 122105Z 1300/1324 15004MPS 9999 FEW020 TX32/1306Z TN24/1321Z

Obserwacja i prognoza pogody dla ponad 4000 lotnisk (raport METAR i TAF).

Dostępne stacje oznaczono żółtymi i czerwonymi punktami na mapie.

Najedź kursorem aby zobaczyć nazwę stacji.

Kliknij aby zobaczyć obserwacje i prognozy pogody.

Aby zmienić mapę: kliknij na zielony przycisk z czarnym krzyżykiem, aby powiększyć; na zielony przycisk z myślnikiem, aby pomniejszyć; na zielone strzałki, aby przejść do map sąsiednich.


METAR-TAF: